Time;durP1;ratioP1;P1;durP2;ratioP2;P2;SDS_P1;SDS_P2;PMS_P1;PMS_P2;Temp;Humidity;BMP_temperature;BMP_pressure;BME280_temperature;BME280_humidity;BME280_pressure;Samples;Min_cycle;Max_cycle;Signal;HPM_P1;HPM_P2
2022/11/10 00:00:30;;;;;;;5.43;1.60;;;11.80;84.50;;;;;;5054452;28;20068;-73
2022/11/10 00:03:03;;;;;;;9.95;1.67;;;11.80;84.60;;;;;;5036938;28;20036;-73
2022/11/10 00:05:30;;;;;;;9.55;1.60;;;11.70;84.90;;;;;;5020488;28;20053;-73
2022/11/10 00:07:55;;;;;;;7.85;1.92;;;11.70;85.10;;;;;;5036666;28;20029;-73
2022/11/10 00:10:21;;;;;;;6.38;1.67;;;11.70;85.20;;;;;;5054227;28;20026;-73
2022/11/10 00:12:47;;;;;;;10.18;2.08;;;11.60;85.20;;;;;;5054152;28;20032;-73
2022/11/10 00:17:59;;;;;;;7.22;1.73;;;11.60;85.70;;;;;;5039548;28;20046;-73
2022/11/10 00:20:26;;;;;;;7.43;2.13;;;11.50;86.10;;;;;;5036797;28;20076;-73
2022/11/10 00:22:54;;;;;;;4.47;1.55;;;11.50;86.00;;;;;;5036678;28;20030;-74
2022/11/10 00:25:20;;;;;;;5.75;1.70;;;11.50;86.10;;;;;;5053874;28;20050;-73
2022/11/10 00:27:46;;;;;;;4.82;1.80;;;11.50;86.10;;;;;;5053890;28;20097;-73
2022/11/10 00:30:12;;;;;;;10.48;2.05;;;11.60;85.90;;;;;;5036505;28;20030;-73
2022/11/10 00:32:37;;;;;;;6.03;1.63;;;11.50;86.10;;;;;;5053846;28;20033;-73
2022/11/10 00:35:03;;;;;;;8.43;1.77;;;11.50;86.20;;;;;;5036264;28;20048;-73
2022/11/10 00:37:29;;;;;;;7.50;2.10;;;11.50;86.20;;;;;;5053869;28;20028;-73
2022/11/10 00:39:54;;;;;;;8.70;1.88;;;11.50;86.50;;;;;;5036311;28;20034;-73
2022/11/10 00:42:20;;;;;;;7.63;1.70;;;11.50;86.80;;;;;;5053689;28;20045;-73
2022/11/10 00:44:45;;;;;;;8.13;1.90;;;11.50;87.50;;;;;;5053611;28;20092;-73
2022/11/10 00:47:12;;;;;;;6.88;1.77;;;11.40;86.80;;;;;;5036169;28;20036;-73
2022/11/10 00:49:38;;;;;;;7.70;2.25;;;11.40;86.90;;;;;;5053678;28;20029;-73
2022/11/10 00:52:04;;;;;;;8.45;2.03;;;11.40;87.00;;;;;;5053541;28;20041;-73
2022/11/10 00:54:29;;;;;;;5.22;1.70;;;11.40;86.80;;;;;;5053458;28;20037;-73
2022/11/10 00:56:55;;;;;;;7.95;1.77;;;11.40;87.00;;;;;;5036007;28;20037;-73
2022/11/10 00:59:20;;;;;;;7.03;1.65;;;11.30;86.70;;;;;;5053560;28;20037;-73
2022/11/10 01:01:46;;;;;;;9.02;1.67;;;11.30;86.50;;;;;;5035998;28;20045;-73
2022/11/10 01:04:12;;;;;;;8.52;1.98;;;11.20;86.30;;;;;;5019453;28;20040;-73
2022/11/10 01:06:37;;;;;;;8.32;1.88;;;11.20;86.70;;;;;;5019674;28;20025;-73
2022/11/10 01:09:03;;;;;;;4.15;1.92;;;11.10;86.90;;;;;;5053359;28;20072;-73
2022/11/10 01:11:29;;;;;;;5.90;2.17;;;11.10;86.80;;;;;;5035825;28;20121;-73
2022/11/10 01:13:55;;;;;;;6.53;1.65;;;11.10;87.10;;;;;;5053245;28;20115;-73
2022/11/10 01:16:27;;;;;;;8.00;2.22;;;11.00;87.30;;;;;;5052391;28;20021;-73
2022/11/10 01:18:55;;;;;;;7.17;2.30;;;11.00;87.20;;;;;;5053201;28;20026;-73
2022/11/10 01:21:22;;;;;;;9.73;2.15;;;11.00;87.50;;;;;;5053162;28;20077;-73
2022/11/10 01:23:48;;;;;;;9.88;2.25;;;10.90;87.40;;;;;;5052952;28;20050;-73
2022/11/10 01:26:14;;;;;;;7.55;2.22;;;11.00;87.50;;;;;;5058818;28;20032;-73
2022/11/10 01:28:39;;;;;;;6.40;1.75;;;10.90;87.60;;;;;;5042157;28;20022;-73
2022/11/10 01:31:11;;;;;;;7.97;1.80;;;10.90;87.60;;;;;;5042123;28;20123;-73
2022/11/10 01:33:37;;;;;;;5.50;2.03;;;10.90;87.80;;;;;;5059723;28;20036;-73
2022/11/10 01:36:04;;;;;;;9.60;2.30;;;10.90;87.80;;;;;;5059518;28;20033;-73
2022/11/10 01:38:32;;;;;;;7.63;2.38;;;10.90;87.70;;;;;;5042022;28;20025;-73
2022/11/10 01:40:59;;;;;;;8.25;1.70;;;10.90;87.70;;;;;;5059584;28;20021;-73
2022/11/10 01:43:25;;;;;;;6.22;2.03;;;10.90;88.60;;;;;;5059588;28;20029;-73
2022/11/10 01:46:08;;;;;;;8.25;2.10;;;10.90;87.70;;;;;;5058586;28;20391;-73
2022/11/10 01:48:40;;;;;;;6.78;2.13;;;10.90;88.00;;;;;;5042028;28;20034;-73
2022/11/10 01:51:26;;;;;;;7.43;2.33;;;10.80;87.70;;;;;;5059649;28;20064;-73
2022/11/10 01:54:02;;;;;;;6.38;2.20;;;10.80;87.90;;;;;;5058585;28;20021;-73
2022/11/10 01:56:32;;;;;;;7.47;2.15;;;10.80;88.50;;;;;;5059375;28;20030;-73
2022/11/10 01:59:02;;;;;;;6.70;2.10;;;10.80;88.60;;;;;;5042013;28;20025;-73
2022/11/10 02:01:29;;;;;;;4.80;1.88;;;10.80;88.80;;;;;;5059723;28;20024;-73
2022/11/10 02:04:17;;;;;;;7.22;2.35;;;10.80;89.00;;;;;;5042220;28;20030;-73
2022/11/10 02:06:45;;;;;;;10.18;2.33;;;10.80;89.20;;;;;;5059436;28;20025;-73
2022/11/10 02:09:11;;;;;;;10.02;3.13;;;10.80;89.30;;;;;;5059302;28;20036;-73
2022/11/10 02:11:38;;;;;;;8.63;3.08;;;10.70;89.70;;;;;;5042005;28;20033;-73
2022/11/10 02:14:04;;;;;;;5.45;2.28;;;10.70;89.70;;;;;;5058386;28;20033;-73
2022/11/10 02:16:30;;;;;;;9.40;1.85;;;10.70;89.80;;;;;;5059219;28;20026;-73
2022/11/10 02:18:56;;;;;;;7.32;1.90;;;10.70;90.00;;;;;;5025313;28;20029;-73
2022/11/10 02:21:21;;;;;;;9.35;2.10;;;10.70;89.90;;;;;;5059215;28;20032;-73
2022/11/10 02:23:52;;;;;;;5.80;2.15;;;10.70;89.80;;;;;;5059018;28;20045;-73
2022/11/10 02:26:24;;;;;;;6.45;2.25;;;10.70;89.70;;;;;;5059233;28;20021;-73
2022/11/10 02:28:50;;;;;;;10.82;2.30;;;10.70;89.70;;;;;;5059223;28;20021;-73
2022/11/10 02:31:16;;;;;;;13.90;2.58;;;10.70;89.60;;;;;;5041729;28;20045;-73
2022/11/10 02:33:42;;;;;;;9.57;2.35;;;10.70;89.40;;;;;;5059168;28;20060;-73
2022/11/10 02:36:08;;;;;;;10.75;2.65;;;10.70;90.10;;;;;;5057502;28;20034;-73
2022/11/10 02:38:34;;;;;;;10.27;2.13;;;10.80;90.00;;;;;;5055729;28;20021;-73
2022/11/10 02:40:59;;;;;;;6.07;2.20;;;10.80;89.10;;;;;;5038625;28;20094;-73
2022/11/10 02:43:25;;;;;;;10.02;2.15;;;10.80;89.00;;;;;;5055862;28;20084;-73
2022/11/10 02:45:50;;;;;;;5.97;1.85;;;10.80;89.30;;;;;;5055860;28;20044;-73
2022/11/10 02:48:16;;;;;;;9.40;1.88;;;10.80;89.30;;;;;;5038377;28;20037;-73
2022/11/10 02:50:42;;;;;;;9.60;2.45;;;10.80;89.40;;;;;;5055767;28;20101;-73
2022/11/10 02:53:08;;;;;;;12.25;2.33;;;10.80;89.40;;;;;;5055748;28;20025;-73
2022/11/10 02:55:34;;;;;;;6.82;2.20;;;10.80;89.30;;;;;;5037902;28;20071;-73
2022/11/10 02:57:59;;;;;;;8.15;2.08;;;10.80;89.50;;;;;;5055655;28;20048;-73
2022/11/10 03:00:26;;;;;;;6.35;1.85;;;10.70;89.20;;;;;;5038167;28;20029;-73
2022/11/10 03:02:56;;;;;;;11.32;2.28;;;10.70;89.30;;;;;;5055556;28;20029;-73
2022/11/10 03:05:22;;;;;;;6.72;1.83;;;10.70;89.40;;;;;;5021777;28;20029;-73
2022/11/10 03:07:56;;;;;;;9.82;2.20;;;10.70;89.30;;;;;;5055395;28;20025;-73
2022/11/10 03:10:22;;;;;;;6.80;1.88;;;10.70;89.20;;;;;;5037885;28;20049;-73
2022/11/10 03:12:48;;;;;;;10.13;2.05;;;10.70;89.30;;;;;;5055380;28;20022;-73
2022/11/10 03:15:14;;;;;;;5.13;2.00;;;10.70;89.20;;;;;;5055234;28;20022;-73
2022/11/10 03:17:40;;;;;;;8.65;1.90;;;10.60;89.20;;;;;;5037731;28;20033;-73
2022/11/10 03:20:06;;;;;;;7.68;2.15;;;10.70;89.30;;;;;;5037686;28;20105;-73
2022/11/10 03:22:31;;;;;;;9.32;2.30;;;10.60;89.20;;;;;;5037598;28;20033;-73
2022/11/10 03:24:57;;;;;;;7.32;2.00;;;10.60;89.70;;;;;;5021125;28;20041;-73
2022/11/10 03:27:23;;;;;;;6.30;1.80;;;10.60;89.60;;;;;;5055092;28;20029;-73
2022/11/10 03:29:48;;;;;;;8.73;1.90;;;10.60;89.30;;;;;;5055029;28;20026;-73
2022/11/10 03:32:14;;;;;;;6.05;1.95;;;10.60;89.60;;;;;;5054997;28;20103;-73
2022/11/10 03:34:39;;;;;;;8.80;1.77;;;10.60;89.40;;;;;;5054932;28;20044;-73
2022/11/10 03:37:05;;;;;;;7.90;1.90;;;10.60;89.30;;;;;;5020987;28;20037;-73
2022/11/10 03:39:31;;;;;;;6.28;1.98;;;10.60;89.40;;;;;;5037325;28;20072;-73
2022/11/10 03:41:56;;;;;;;6.53;1.92;;;10.60;89.60;;;;;;5054830;28;20029;-73
2022/11/10 03:44:22;;;;;;;4.97;2.05;;;10.50;89.40;;;;;;5054768;28;20085;-73
2022/11/10 03:46:47;;;;;;;7.10;1.73;;;10.50;89.60;;;;;;5020892;28;20032;-73
2022/11/10 03:49:13;;;;;;;8.93;1.95;;;10.50;89.50;;;;;;5054393;28;20041;-73
2022/11/10 03:51:39;;;;;;;7.20;2.03;;;10.50;89.90;;;;;;5054636;28;20018;-73
2022/11/10 03:54:04;;;;;;;4.68;1.80;;;10.50;89.80;;;;;;5054585;28;20499;-73
2022/11/10 03:56:30;;;;;;;5.40;1.83;;;10.50;89.70;;;;;;5036966;28;20039;-74
2022/11/10 03:58:56;;;;;;;6.10;2.00;;;10.50;89.50;;;;;;5036956;28;20041;-74
2022/11/10 04:01:22;;;;;;;7.65;1.77;;;10.40;89.40;;;;;;5020598;28;20037;-74
2022/11/10 04:03:48;;;;;;;6.82;1.77;;;10.40;89.80;;;;;;5036933;28;20472;-73
2022/11/10 04:08:59;;;;;;;8.73;2.10;;;10.40;89.90;;;;;;5054385;28;20048;-73
2022/11/10 04:16:58;;;;;;;6.22;2.03;;;10.30;90.00;;;;;;5054295;28;20128;-73
2022/11/10 04:19:25;;;;;;;4.45;1.67;;;10.30;89.70;;;;;;5036581;28;20034;-73
2022/11/10 04:21:51;;;;;;;4.75;1.67;;;10.30;90.00;;;;;;5036597;28;20026;-73
2022/11/10 04:24:16;;;;;;;7.07;1.80;;;10.30;90.10;;;;;;5036299;28;20057;-73
2022/11/10 04:26:43;;;;;;;8.55;2.10;;;10.40;89.70;;;;;;5053975;28;20040;-73
2022/11/10 04:29:10;;;;;;;9.90;2.22;;;10.30;89.50;;;;;;5020250;28;20030;-73
2022/11/10 04:31:38;;;;;;;6.18;2.03;;;10.30;89.70;;;;;;5020224;28;20036;-73
2022/11/10 04:34:11;;;;;;;8.73;1.90;;;10.30;89.60;;;;;;5053874;28;20021;-73
2022/11/10 04:36:39;;;;;;;6.68;1.67;;;10.30;89.90;;;;;;5053736;28;20033;-73
2022/11/10 04:39:06;;;;;;;6.80;2.03;;;10.30;90.00;;;;;;5053756;28;20049;-73
2022/11/10 04:41:32;;;;;;;7.72;1.80;;;10.30;90.00;;;;;;5053678;28;20025;-73
2022/11/10 04:43:59;;;;;;;7.57;2.00;;;10.30;90.00;;;;;;5053668;28;20025;-73
2022/11/10 04:46:30;;;;;;;13.32;2.28;;;10.30;90.00;;;;;;5053621;28;20120;-73
2022/11/10 04:48:57;;;;;;;8.77;2.27;;;10.30;89.90;;;;;;5053668;28;20477;-73
2022/11/10 04:51:25;;;;;;;14.75;2.60;;;10.30;90.00;;;;;;5053560;28;20021;-73
2022/11/10 04:53:51;;;;;;;16.67;2.63;;;10.30;90.00;;;;;;5053540;28;20029;-74
2022/11/10 04:56:19;;;;;;;8.25;1.90;;;10.30;90.00;;;;;;5036157;28;20039;-74
2022/11/10 04:58:46;;;;;;;6.80;2.47;;;10.30;89.70;;;;;;5035955;28;20053;-74
2022/11/10 05:01:17;;;;;;;8.63;1.67;;;10.30;90.00;;;;;;5052803;28;20032;-74
2022/11/10 05:03:43;;;;;;;7.90;2.20;;;10.20;90.00;;;;;;5053415;28;20026;-74
2022/11/10 05:06:09;;;;;;;5.60;1.60;;;10.20;90.00;;;;;;5035943;28;20026;-74
2022/11/10 05:08:36;;;;;;;3.65;1.40;;;10.30;90.00;;;;;;5035728;28;20040;-74
2022/11/10 05:11:02;;;;;;;6.53;1.55;;;10.30;89.80;;;;;;5053303;28;20028;-74
2022/11/10 05:13:28;;;;;;;6.43;1.80;;;10.20;89.90;;;;;;5035911;28;20033;-74
2022/11/10 05:15:53;;;;;;;9.20;1.80;;;10.20;90.00;;;;;;5053113;28;20029;-74
2022/11/10 05:18:19;;;;;;;5.68;1.60;;;10.20;90.10;;;;;;5053214;28;20089;-74
2022/11/10 05:20:45;;;;;;;11.68;2.05;;;10.10;90.00;;;;;;5053173;28;20037;-74
2022/11/10 05:25:55;;;;;;;9.60;2.33;;;10.10;90.10;;;;;;5053374;28;20047;-74
2022/11/10 05:28:20;;;;;;;7.63;1.80;;;10.00;90.10;;;;;;5035634;28;20049;-74
2022/11/10 05:30:46;;;;;;;10.23;2.25;;;9.90;90.10;;;;;;5035756;28;20085;-74
2022/11/10 05:33:12;;;;;;;9.40;1.67;;;9.90;90.10;;;;;;5053057;28;20034;-74
2022/11/10 05:35:37;;;;;;;9.60;1.92;;;9.90;90.20;;;;;;5035459;28;20029;-74
2022/11/10 05:38:04;;;;;;;9.88;2.08;;;9.90;90.30;;;;;;5035500;28;20024;-74
2022/11/10 05:40:30;;;;;;;4.35;1.90;;;9.80;90.40;;;;;;5052964;28;20017;-74
2022/11/10 05:42:56;;;;;;;10.38;2.22;;;9.80;90.50;;;;;;5035471;28;20038;-74
2022/11/10 05:45:24;;;;;;;9.07;1.90;;;9.80;90.50;;;;;;5052935;28;20036;-74
2022/11/10 05:47:50;;;;;;;8.00;2.63;;;9.80;90.70;;;;;;5052805;28;20019;-74
2022/11/10 05:50:17;;;;;;;5.53;2.13;;;9.70;90.80;;;;;;5052902;28;20032;-74
2022/11/10 05:52:48;;;;;;;5.97;2.08;;;9.70;90.80;;;;;;5035357;28;20025;-74
2022/11/10 05:55:16;;;;;;;8.57;1.67;;;9.70;90.90;;;;;;5035318;28;20033;-74
2022/11/10 05:57:46;;;;;;;7.85;2.15;;;9.70;90.90;;;;;;5052788;28;20020;-74
2022/11/10 06:00:14;;;;;;;4.43;1.65;;;9.70;90.90;;;;;;5052989;28;20017;-74
2022/11/10 06:02:39;;;;;;;14.40;2.20;;;9.70;91.00;;;;;;5052781;28;20021;-74
2022/11/10 06:05:05;;;;;;;7.55;2.30;;;9.80;90.90;;;;;;5035334;28;20033;-74
2022/11/10 06:07:31;;;;;;;9.50;2.40;;;9.80;90.90;;;;;;5052646;28;20029;-74
2022/11/10 06:09:57;;;;;;;11.60;1.88;;;9.80;91.00;;;;;;5035333;28;20029;-74
2022/11/10 06:12:23;;;;;;;9.13;2.80;;;9.70;91.00;;;;;;5038546;28;20037;-74
2022/11/10 06:14:50;;;;;;;8.90;2.00;;;9.70;91.20;;;;;;5039209;28;20026;-74
2022/11/10 06:17:16;;;;;;;4.50;1.48;;;9.70;91.30;;;;;;5022432;28;20025;-74
2022/11/10 06:19:42;;;;;;;6.95;1.92;;;9.70;91.30;;;;;;5056375;28;20032;-74
2022/11/10 06:22:08;;;;;;;13.02;2.03;;;9.70;91.30;;;;;;5056285;28;20014;-74
2022/11/10 06:24:34;;;;;;;11.60;2.22;;;9.70;91.30;;;;;;5038745;28;20069;-74
2022/11/10 06:26:59;;;;;;;8.93;1.95;;;9.70;91.50;;;;;;5056351;28;20044;-75
2022/11/10 06:29:25;;;;;;;11.98;2.28;;;9.70;91.90;;;;;;5056110;28;20037;-74
2022/11/10 06:31:50;;;;;;;10.48;2.20;;;9.60;91.50;;;;;;5038643;28;20093;-74
2022/11/10 06:34:17;;;;;;;12.45;2.35;;;9.60;91.50;;;;;;5056094;28;20033;-74
2022/11/10 06:36:42;;;;;;;8.05;2.33;;;9.60;91.60;;;;;;5055935;28;20033;-74
2022/11/10 06:39:08;;;;;;;7.38;2.17;;;9.60;91.60;;;;;;5055955;28;20049;-74
2022/11/10 06:41:34;;;;;;;4.05;1.92;;;9.70;91.60;;;;;;5038495;28;20025;-74
2022/11/10 06:43:59;;;;;;;10.18;2.85;;;9.60;91.40;;;;;;5056031;28;20025;-74
2022/11/10 06:46:25;;;;;;;8.15;2.00;;;9.60;91.50;;;;;;5021846;28;20118;-74
2022/11/10 06:48:51;;;;;;;7.85;1.77;;;9.60;91.50;;;;;;5055842;28;20128;-74
2022/11/10 06:51:17;;;;;;;7.40;2.13;;;9.60;91.40;;;;;;5055781;28;20025;-74
2022/11/10 06:53:43;;;;;;;7.07;1.98;;;9.70;91.40;;;;;;5055644;28;20022;-75
2022/11/10 06:56:08;;;;;;;8.98;2.60;;;9.60;91.80;;;;;;5055601;28;20033;-75
2022/11/10 06:58:34;;;;;;;5.03;1.60;;;9.60;91.30;;;;;;5038325;28;20030;-72
2022/11/10 07:01:00;;;;;;;7.78;2.15;;;9.60;91.40;;;;;;5055562;28;20036;-73
2022/11/10 07:03:26;;;;;;;9.85;2.88;;;9.60;91.60;;;;;;5038295;28;20030;-73
2022/11/10 07:05:51;;;;;;;6.95;2.25;;;9.60;92.00;;;;;;5055444;28;20496;-73
2022/11/10 07:08:17;;;;;;;10.70;2.78;;;9.60;91.60;;;;;;5055385;28;20033;-73
2022/11/10 07:10:44;;;;;;;11.52;2.50;;;9.60;91.70;;;;;;5055422;28;20063;-73
2022/11/10 07:13:10;;;;;;;8.77;2.10;;;9.60;91.60;;;;;;5021461;28;20025;-73
2022/11/10 07:15:36;;;;;;;8.02;2.00;;;9.60;91.70;;;;;;5037784;28;20033;-73
2022/11/10 07:18:02;;;;;;;5.55;2.25;;;9.60;91.80;;;;;;5055235;28;20508;-73
2022/11/10 07:20:30;;;;;;;9.02;2.15;;;9.60;91.90;;;;;;5037901;28;20049;-72
2022/11/10 07:23:04;;;;;;;8.55;2.33;;;9.60;91.90;;;;;;5054490;28;20100;-73
2022/11/10 07:25:32;;;;;;;11.73;2.95;;;9.70;91.90;;;;;;5037711;28;20115;-73
2022/11/10 07:27:59;;;;;;;8.98;2.35;;;9.70;91.90;;;;;;5054231;28;20018;-74
2022/11/10 07:30:26;;;;;;;11.27;2.75;;;9.70;91.90;;;;;;5055023;28;20089;-73
2022/11/10 07:33:03;;;;;;;14.25;2.63;;;9.70;91.90;;;;;;5055032;28;20056;-73
2022/11/10 07:35:30;;;;;;;8.15;2.50;;;9.70;92.00;;;;;;5054922;28;20081;-73
2022/11/10 07:37:57;;;;;;;6.93;1.80;;;9.80;92.30;;;;;;5054860;28;20032;-73
2022/11/10 07:40:22;;;;;;;12.50;2.42;;;9.80;91.90;;;;;;5021211;28;20026;-73
2022/11/10 07:42:48;;;;;;;8.48;2.45;;;9.80;91.90;;;;;;5054822;28;20032;-73
2022/11/10 07:45:14;;;;;;;6.88;2.10;;;9.80;91.80;;;;;;5037417;28;20025;-73
2022/11/10 07:47:40;;;;;;;12.68;2.40;;;9.90;91.90;;;;;;5054755;28;20369;-73
2022/11/10 07:50:06;;;;;;;10.73;3.20;;;9.90;92.00;;;;;;5054657;28;20117;-73
2022/11/10 07:52:31;;;;;;;4.07;2.10;;;9.90;91.90;;;;;;5037157;28;20022;-73
2022/11/10 07:54:57;;;;;;;9.32;2.42;;;9.90;92.00;;;;;;5054562;28;20037;-73
2022/11/10 07:57:23;;;;;;;12.15;2.55;;;9.90;92.00;;;;;;5037020;28;20032;-73
2022/11/10 07:59:48;;;;;;;6.88;2.17;;;9.90;92.00;;;;;;5054505;28;20492;-72
2022/11/10 08:02:14;;;;;;;8.98;2.10;;;10.00;92.00;;;;;;5054391;28;20029;-74
2022/11/10 08:04:39;;;;;;;9.70;2.95;;;10.10;92.30;;;;;;5054542;28;20036;-74
2022/11/10 08:07:05;;;;;;;10.13;2.28;;;10.20;91.80;;;;;;5054505;28;20041;-75
2022/11/10 08:09:31;;;;;;;9.88;2.25;;;10.60;91.20;;;;;;5036839;28;20032;-73
2022/11/10 08:11:57;;;;;;;8.50;2.58;;;11.00;90.70;;;;;;5020327;28;20029;-73
2022/11/10 08:14:22;;;;;;;8.90;2.13;;;11.40;89.60;;;;;;5054209;28;20068;-73
2022/11/10 08:16:49;;;;;;;11.27;2.80;;;11.80;88.50;;;;;;5054118;28;20043;-73
2022/11/10 08:19:15;;;;;;;11.52;2.63;;;12.10;87.40;;;;;;5054118;28;20045;-73
2022/11/10 08:21:40;;;;;;;7.65;3.05;;;12.30;85.80;;;;;;5036655;28;20021;-75
2022/11/10 08:24:06;;;;;;;11.05;3.13;;;12.50;84.90;;;;;;5019914;28;20081;-75
2022/11/10 08:26:32;;;;;;;8.35;2.58;;;12.70;83.20;;;;;;5053998;28;20097;-75
2022/11/10 08:28:57;;;;;;;11.50;2.50;;;12.90;83.20;;;;;;5036587;28;20060;-73
2022/11/10 08:31:23;;;;;;;9.80;2.60;;;13.30;81.90;;;;;;5036499;28;20048;-73
2022/11/10 08:33:49;;;;;;;10.02;2.50;;;13.40;80.60;;;;;;5036155;28;20025;-73
2022/11/10 08:36:15;;;;;;;8.35;2.53;;;13.60;79.90;;;;;;5053141;28;20044;-73
2022/11/10 08:38:41;;;;;;;10.93;2.47;;;13.70;79.20;;;;;;5053781;28;20081;-73
2022/11/10 08:41:06;;;;;;;10.45;2.88;;;13.90;80.20;;;;;;5053711;28;20021;-73
2022/11/10 08:43:32;;;;;;;11.45;2.70;;;14.00;78.60;;;;;;5053678;28;20034;-73
2022/11/10 08:45:57;;;;;;;8.82;2.40;;;14.00;78.20;;;;;;5019939;28;20025;-73
2022/11/10 08:48:24;;;;;;;8.77;2.40;;;14.00;77.90;;;;;;5053618;28;20469;-73
2022/11/10 08:50:50;;;;;;;6.43;3.05;;;14.20;78.00;;;;;;5036194;28;20040;-73
2022/11/10 08:53:22;;;;;;;12.05;2.80;;;14.30;76.90;;;;;;5053499;28;20081;-74
2022/11/10 08:55:48;;;;;;;9.38;2.92;;;14.40;76.50;;;;;;5053606;28;20032;-74
2022/11/10 08:58:20;;;;;;;6.40;2.95;;;14.60;76.50;;;;;;5053465;28;20028;-73
2022/11/10 09:00:46;;;;;;;7.75;2.28;;;14.60;75.90;;;;;;5036837;28;20045;-74
2022/11/10 09:03:20;;;;;;;8.35;2.33;;;14.70;75.80;;;;;;5053375;28;20049;-74
2022/11/10 09:05:47;;;;;;;5.35;2.17;;;14.80;76.50;;;;;;5035971;28;20025;-73
2022/11/10 09:08:13;;;;;;;11.70;2.85;;;15.00;74.80;;;;;;5053241;28;20033;-74
2022/11/10 09:10:41;;;;;;;8.38;2.35;;;15.00;75.20;;;;;;5053310;28;20036;-74
2022/11/10 09:13:07;;;;;;;6.07;2.20;;;15.00;75.50;;;;;;5053287;28;20033;-73
2022/11/10 09:15:34;;;;;;;7.18;2.42;;;14.70;75.20;;;;;;5035661;28;20029;-73
2022/11/10 09:18:01;;;;;;;8.98;2.30;;;14.50;76.30;;;;;;5053228;28;20044;-73
2022/11/10 09:20:29;;;;;;;8.48;2.28;;;14.20;77.40;;;;;;5053182;28;20022;-74
2022/11/10 09:22:55;;;;;;;9.02;2.15;;;14.10;78.50;;;;;;5053137;28;20025;-73
2022/11/10 09:25:21;;;;;;;8.88;2.78;;;14.00;78.80;;;;;;5035469;28;20072;-73
2022/11/10 09:27:47;;;;;;;10.25;2.00;;;14.00;78.70;;;;;;5053051;28;20021;-73
2022/11/10 09:30:13;;;;;;;7.80;2.00;;;13.90;79.50;;;;;;5053247;28;20086;-73
2022/11/10 09:32:38;;;;;;;8.20;2.10;;;13.90;79.70;;;;;;5019489;28;20096;-73
2022/11/10 09:35:05;;;;;;;8.23;2.53;;;13.90;79.40;;;;;;5053043;28;20040;-74
2022/11/10 09:37:31;;;;;;;11.70;3.50;;;13.90;79.80;;;;;;5052951;28;20033;-73
2022/11/10 09:39:56;;;;;;;9.18;2.38;;;13.80;79.70;;;;;;5052928;28;20036;-73
2022/11/10 09:42:22;;;;;;;7.88;2.00;;;13.80;80.10;;;;;;5035426;28;20021;-73
2022/11/10 09:44:59;;;;;;;7.40;2.30;;;13.80;80.20;;;;;;5035413;28;20026;-73
2022/11/10 09:47:39;;;;;;;14.23;3.03;;;13.80;80.50;;;;;;5056271;28;20031;-73
2022/11/10 09:50:10;;;;;;;8.10;1.88;;;13.90;80.50;;;;;;5039477;28;20032;-73
2022/11/10 09:52:38;;;;;;;7.60;2.50;;;13.80;80.10;;;;;;5056888;28;20029;-74
2022/11/10 09:55:22;;;;;;;15.07;2.63;;;13.80;81.20;;;;;;5055848;28;20113;-74
2022/11/10 09:57:52;;;;;;;7.75;2.30;;;13.80;81.40;;;;;;5056781;28;20038;-73
2022/11/10 10:00:18;;;;;;;7.40;2.10;;;13.70;81.20;;;;;;5056740;28;20025;-73
2022/11/10 10:03:04;;;;;;;16.50;2.33;;;13.80;81.50;;;;;;5056682;28;20052;-73
2022/11/10 10:05:52;;;;;;;8.75;2.03;;;13.80;81.40;;;;;;5055674;28;20026;-73
2022/11/10 10:08:36;;;;;;;9.25;2.30;;;13.90;80.90;;;;;;5039076;28;20101;-73
2022/11/10 10:11:25;;;;;;;10.18;2.00;;;13.80;81.00;;;;;;5056480;28;20040;-73
2022/11/10 10:14:09;;;;;;;7.63;2.25;;;13.90;81.60;;;;;;5056513;28;20033;-73
2022/11/10 10:16:41;;;;;;;7.85;2.60;;;14.00;81.40;;;;;;5056409;28;20057;-73
2022/11/10 10:19:34;;;;;;;8.75;2.38;;;14.00;80.80;;;;;;5056533;28;20026;-73
2022/11/10 10:22:43;;;;;;;9.20;2.20;;;14.00;80.80;;;;;;5056460;28;20022;-73
2022/11/10 10:25:18;;;;;;;11.63;2.20;;;14.10;81.60;;;;;;5056084;28;20072;-73
2022/11/10 10:27:47;;;;;;;9.30;2.00;;;14.10;79.80;;;;;;5055321;28;20018;-73
2022/11/10 10:30:16;;;;;;;9.20;2.40;;;14.20;80.90;;;;;;5056170;28;20073;-73
2022/11/10 10:32:42;;;;;;;10.27;1.90;;;14.30;80.70;;;;;;5056163;28;20093;-73
2022/11/10 10:35:15;;;;;;;7.22;2.05;;;14.40;80.50;;;;;;5056113;28;20029;-73
2022/11/10 10:37:50;;;;;;;8.63;1.80;;;14.50;79.40;;;;;;5056202;28;20044;-73
2022/11/10 10:40:20;;;;;;;8.52;2.35;;;14.60;79.30;;;;;;5038510;28;20022;-73
2022/11/10 10:42:46;;;;;;;8.05;1.42;;;14.70;78.30;;;;;;5056070;28;20052;-73
2022/11/10 10:45:15;;;;;;;9.00;2.72;;;14.80;77.80;;;;;;5038498;28;20026;-73
2022/11/10 10:47:41;;;;;;;7.53;1.95;;;14.90;77.50;;;;;;5038354;28;20037;-73
2022/11/10 10:50:21;;;;;;;8.98;1.98;;;15.00;77.90;;;;;;5038524;28;20022;-73
2022/11/10 10:53:10;;;;;;;12.73;2.03;;;15.00;76.50;;;;;;5055778;28;20021;-73
2022/11/10 10:55:36;;;;;;;8.07;2.42;;;15.00;76.20;;;;;;5055723;28;20021;-73
2022/11/10 10:58:29;;;;;;;12.43;1.95;;;15.00;76.80;;;;;;5054561;28;20089;-73
2022/11/10 11:01:03;;;;;;;5.47;1.45;;;15.00;76.30;;;;;;5038168;28;20201;-73
2022/11/10 11:03:43;;;;;;;9.52;1.92;;;15.10;76.20;;;;;;5055558;28;20052;-73
2022/11/10 11:06:15;;;;;;;6.07;2.10;;;15.10;76.30;;;;;;5055527;28;20049;-73
2022/11/10 11:09:16;;;;;;;7.38;2.00;;;15.20;76.00;;;;;;5055406;28;20041;-73
2022/11/10 11:11:44;;;;;;;4.65;1.20;;;15.20;76.50;;;;;;5054514;28;20029;-73
2022/11/10 11:14:27;;;;;;;7.10;1.60;;;15.40;75.90;;;;;;5055380;28;20017;-73
2022/11/10 11:17:01;;;;;;;6.05;1.55;;;15.40;74.90;;;;;;5055349;28;20056;-73
2022/11/10 11:19:34;;;;;;;11.40;1.75;;;15.40;75.40;;;;;;5055370;28;20029;-73
2022/11/10 11:22:16;;;;;;;8.18;2.28;;;15.50;75.40;;;;;;5054366;28;20453;-73
2022/11/10 11:24:55;;;;;;;9.98;2.22;;;15.60;74.50;;;;;;5037510;28;20567;-73
2022/11/10 11:27:44;;;;;;;7.47;1.60;;;15.60;75.10;;;;;;5055307;28;20035;-73
2022/11/10 11:30:17;;;;;;;6.38;1.40;;;15.60;74.30;;;;;;5055120;28;20055;-73
2022/11/10 11:32:46;;;;;;;2.72;1.15;;;15.70;73.70;;;;;;5037562;28;20049;-73
2022/11/10 11:35:30;;;;;;;7.35;1.90;;;15.70;72.80;;;;;;5054989;28;20034;-73
2022/11/10 11:38:13;;;;;;;7.25;1.48;;;15.60;73.60;;;;;;5055122;28;20030;-73
2022/11/10 11:41:05;;;;;;;10.88;1.70;;;15.60;73.40;;;;;;5037365;28;20021;-73
2022/11/10 11:43:53;;;;;;;5.90;1.20;;;15.60;74.40;;;;;;5016906;28;20034;-73
2022/11/10 11:46:43;;;;;;;8.18;1.73;;;15.70;73.90;;;;;;5037354;28;20114;-73
2022/11/10 11:49:33;;;;;;;5.45;1.40;;;15.80;73.10;;;;;;5037272;28;20081;-74
2022/11/10 11:52:49;;;;;;;8.75;1.58;;;15.90;72.60;;;;;;5054688;28;20085;-73
2022/11/10 11:55:44;;;;;;;5.82;1.27;;;16.00;73.30;;;;;;5013036;28;20052;-74
2022/11/10 11:58:22;;;;;;;7.13;1.70;;;16.10;73.20;;;;;;5053160;28;20094;-74
2022/11/10 12:01:22;;;;;;;7.00;1.90;;;16.20;71.90;;;;;;5054547;28;20029;-74
2022/11/10 12:04:16;;;;;;;8.75;1.65;;;16.20;70.90;;;;;;5036667;28;20048;-73
2022/11/10 12:06:50;;;;;;;7.15;1.23;;;16.20;71.20;;;;;;5054371;28;20021;-74
2022/11/10 12:09:22;;;;;;;5.82;1.42;;;16.20;71.10;;;;;;5036544;28;20101;-73
2022/11/10 12:12:28;;;;;;;5.13;1.50;;;16.30;69.90;;;;;;5054240;28;20025;-74
2022/11/10 12:15:03;;;;;;;5.78;1.05;;;16.30;69.70;;;;;;4938954;29;20031;-74
2022/11/10 12:17:34;;;;;;;4.93;1.33;;;16.40;70.00;;;;;;4954891;29;20063;-73
2022/11/10 12:20:12;;;;;;;7.85;1.17;;;16.40;69.70;;;;;;5012668;28;20033;-74
2022/11/10 12:23:10;;;;;;;5.28;1.17;;;16.50;69.20;;;;;;5036708;28;20026;-74
2022/11/10 12:25:48;;;;;;;5.13;1.38;;;16.50;70.10;;;;;;5053966;28;20408;-73
2022/11/10 12:28:29;;;;;;;5.88;1.30;;;16.40;69.40;;;;;;5054190;28;20089;-74
2022/11/10 12:31:01;;;;;;;6.57;1.20;;;16.30;69.80;;;;;;5054150;28;20021;-74
2022/11/10 12:33:38;;;;;;;4.15;1.00;;;16.20;69.70;;;;;;5036429;28;20021;-74
2022/11/10 12:36:10;;;;;;;4.40;0.98;;;16.20;70.40;;;;;;5053707;28;20415;-74
2022/11/10 12:38:42;;;;;;;5.93;1.42;;;16.30;69.80;;;;;;5053860;28;20030;-73
2022/11/10 12:41:13;;;;;;;6.15;1.60;;;16.50;70.20;;;;;;5053762;28;20021;-73
2022/11/10 12:43:50;;;;;;;6.13;1.17;;;16.50;70.10;;;;;;5053779;28;20029;-74
2022/11/10 12:46:16;;;;;;;4.55;1.13;;;16.50;69.60;;;;;;5053709;28;20029;-74
2022/11/10 12:48:59;;;;;;;7.40;1.30;;;16.60;69.30;;;;;;5036391;28;20037;-73
2022/11/10 12:52:06;;;;;;;4.05;1.10;;;16.60;68.10;;;;;;5053780;28;20022;-74
2022/11/10 12:54:34;;;;;;;8.27;1.05;;;16.60;68.90;;;;;;4999283;28;20038;-74
2022/11/10 12:57:12;;;;;;;4.72;1.10;;;16.60;68.10;;;;;;5053428;28;20061;-74
2022/11/10 12:59:41;;;;;;;6.57;1.30;;;16.50;67.50;;;;;;5035963;28;20025;-73
2022/11/10 13:02:18;;;;;;;7.15;1.80;;;16.40;67.50;;;;;;5053410;28;20477;-73
2022/11/10 13:04:44;;;;;;;4.88;1.13;;;16.40;67.60;;;;;;5053344;28;20045;-73
2022/11/10 13:07:10;;;;;;;4.00;1.10;;;16.30;68.00;;;;;;5053344;28;20064;-73
2022/11/10 13:09:41;;;;;;;5.68;1.13;;;16.30;68.70;;;;;;5035805;28;20045;-74
2022/11/10 13:12:09;;;;;;;7.47;1.08;;;16.30;68.60;;;;;;5053093;28;20032;-74
2022/11/10 13:14:36;;;;;;;5.35;1.10;;;16.30;67.80;;;;;;5053273;28;20030;-74